createdAt,value
2022-08-22T00:01:26.206Z,12.70
2022-08-22T00:02:47.663Z,7.10
2022-08-22T00:03:00.233Z,10.60
2022-08-22T00:03:00.668Z,8.90
2022-08-22T00:03:03.865Z,10.30
2022-08-22T00:04:24.956Z,12.60
2022-08-22T00:07:21.968Z,12.60
2022-08-22T00:10:07.823Z,11.50
2022-08-22T00:13:19.679Z,12.10
2022-08-22T00:16:03.058Z,11.70
2022-08-22T00:18:44.014Z,12.20
2022-08-22T00:21:32.662Z,11.40
2022-08-22T00:24:17.186Z,11.60
2022-08-22T00:27:02.169Z,10.80
2022-08-22T00:29:54.836Z,10.90
2022-08-22T00:32:38.996Z,10.60
2022-08-22T00:35:44.408Z,11.60
2022-08-22T00:38:22.849Z,10.30
2022-08-22T00:41:24.459Z,9.40
2022-08-22T00:44:23.312Z,9.90
2022-08-22T00:47:26.201Z,10.20
2022-08-22T00:50:26.206Z,10.50
2022-08-22T00:53:40.097Z,9.40
2022-08-22T00:56:28.170Z,10.00
2022-08-22T00:59:31.227Z,9.80
2022-08-22T01:02:32.184Z,9.60
2022-08-22T01:05:20.404Z,9.70
2022-08-22T01:08:20.862Z,10.00
2022-08-22T01:11:11.734Z,8.70
2022-08-22T01:14:06.550Z,9.40
2022-08-22T01:16:47.203Z,9.80
2022-08-22T01:20:01.009Z,8.40
2022-08-22T01:22:52.412Z,8.70
2022-08-22T01:25:46.632Z,8.80
2022-08-22T01:28:36.130Z,8.50
2022-08-22T01:31:38.949Z,8.30
2022-08-22T01:34:39.793Z,7.70
2022-08-22T01:38:04.117Z,7.90
2022-08-22T01:41:01.266Z,7.60
2022-08-22T01:44:00.635Z,8.30
2022-08-22T01:46:32.615Z,7.70
2022-08-22T01:49:24.523Z,8.10
2022-08-22T01:52:07.741Z,8.30
2022-08-22T01:54:58.963Z,8.20
2022-08-22T01:57:27.511Z,8.00
2022-08-22T02:00:08.167Z,8.10
2022-08-22T02:02:56.237Z,8.50
2022-08-22T02:05:31.975Z,8.70
2022-08-22T02:08:31.530Z,8.50
2022-08-22T02:11:50.854Z,8.20
2022-08-22T02:14:43.747Z,8.70
2022-08-22T02:17:29.182Z,8.40
2022-08-22T02:20:18.282Z,8.00
2022-08-22T02:23:09.302Z,8.20
2022-08-22T02:26:02.222Z,8.00
2022-08-22T02:28:57.041Z,8.40
2022-08-22T02:32:02.770Z,7.80
2022-08-22T02:34:54.980Z,7.90
2022-08-22T02:37:37.494Z,7.90
2022-08-22T02:40:35.541Z,8.10
2022-08-22T02:43:49.655Z,7.60
2022-08-22T02:46:54.744Z,8.00
2022-08-22T02:49:51.375Z,7.70
2022-08-22T02:52:39.199Z,7.70
2022-08-22T02:55:23.495Z,8.00
2022-08-22T02:58:32.866Z,8.00
2022-08-22T03:01:02.112Z,7.30
2022-08-22T03:03:38.496Z,6.80
2022-08-22T03:06:28.297Z,7.50
2022-08-22T03:09:28.775Z,8.10
2022-08-22T03:12:39.195Z,7.90
2022-08-22T03:15:26.745Z,8.30
2022-08-22T03:18:16.629Z,8.10
2022-08-22T03:21:11.996Z,8.10
2022-08-22T03:24:14.631Z,8.00
2022-08-22T03:27:32.797Z,8.50
2022-08-22T03:30:12.499Z,8.00
2022-08-22T03:32:56.409Z,8.70
2022-08-22T03:35:50.977Z,9.20
2022-08-22T03:38:24.851Z,9.10
2022-08-22T03:41:15.160Z,9.40
2022-08-22T03:44:33.013Z,9.60
2022-08-22T03:47:42.694Z,9.70
2022-08-22T03:50:40.178Z,9.60
2022-08-22T03:53:25.176Z,9.40
2022-08-22T03:56:28.061Z,9.40
2022-08-22T03:59:20.210Z,9.80
2022-08-22T04:01:57.841Z,8.80
2022-08-22T04:05:04.015Z,9.60
2022-08-22T04:08:09.924Z,8.80
2022-08-22T04:11:16.584Z,9.00
2022-08-22T04:14:16.495Z,8.80
2022-08-22T04:16:49.042Z,8.50
2022-08-22T04:19:38.661Z,9.50
2022-08-22T04:22:33.412Z,8.50
2022-08-22T04:25:08.960Z,8.50
2022-08-22T04:28:08.938Z,8.70
2022-08-22T04:30:47.346Z,8.10
2022-08-22T04:33:55.515Z,8.30
2022-08-22T04:36:35.135Z,8.20
2022-08-22T04:39:18.562Z,8.60
2022-08-22T04:41:50.485Z,8.00
2022-08-22T04:44:28.070Z,8.00
2022-08-22T04:47:06.493Z,8.10
2022-08-22T04:49:49.607Z,8.70
2022-08-22T04:52:43.524Z,8.00
2022-08-22T04:55:25.528Z,7.60
2022-08-22T04:58:12.243Z,7.70
2022-08-22T05:01:00.673Z,7.40
2022-08-22T05:03:30.902Z,7.70
2022-08-22T05:06:01.353Z,7.60
2022-08-22T05:08:35.065Z,7.50
2022-08-22T05:11:06.670Z,6.90
2022-08-22T05:13:55.375Z,7.60
2022-08-22T05:16:30.523Z,7.80
2022-08-22T05:19:05.545Z,8.00
2022-08-22T05:21:38.173Z,7.20
2022-08-22T05:24:17.575Z,7.00
2022-08-22T05:26:52.190Z,7.10
2022-08-22T05:29:25.394Z,7.20
2022-08-22T05:32:03.845Z,6.10
2022-08-22T05:34:39.048Z,6.60
2022-08-22T05:37:17.790Z,6.70
2022-08-22T05:39:51.868Z,7.10
2022-08-22T05:42:28.399Z,7.50
2022-08-22T05:44:55.880Z,7.40
2022-08-22T05:47:36.277Z,7.30
2022-08-22T05:50:07.405Z,7.10
2022-08-22T05:52:44.848Z,8.30
2022-08-22T05:56:00.375Z,7.40
2022-08-22T05:58:38.758Z,7.70
2022-08-22T06:01:24.144Z,7.30
2022-08-22T06:04:27.058Z,8.00
2022-08-22T06:06:58.807Z,7.80
2022-08-22T06:09:43.900Z,7.50
2022-08-22T06:12:22.130Z,7.80
2022-08-22T06:15:01.807Z,7.70
2022-08-22T06:17:36.522Z,7.40
2022-08-22T06:20:08.879Z,7.50
2022-08-22T06:22:52.838Z,7.30
2022-08-22T06:25:32.601Z,7.80
2022-08-22T06:28:08.361Z,8.00
2022-08-22T06:30:39.537Z,7.40
2022-08-22T06:33:12.877Z,7.20
2022-08-22T06:36:07.985Z,7.20
2022-08-22T06:38:56.355Z,7.10
2022-08-22T06:41:30.235Z,7.00
2022-08-22T06:43:59.200Z,6.20
2022-08-22T06:46:29.958Z,5.80
2022-08-22T06:49:00.681Z,7.20
2022-08-22T06:51:28.742Z,6.50
2022-08-22T06:54:05.288Z,6.50
2022-08-22T06:56:42.506Z,6.40
2022-08-22T06:59:16.084Z,6.30
2022-08-22T07:01:51.570Z,6.00
2022-08-22T07:04:26.582Z,6.40
2022-08-22T07:06:57.319Z,6.30
2022-08-22T07:09:36.088Z,6.30
2022-08-22T07:12:29.266Z,5.80
2022-08-22T07:15:09.683Z,6.10
2022-08-22T07:17:40.513Z,6.30
2022-08-22T07:20:33.765Z,6.10
2022-08-22T07:23:06.764Z,6.80
2022-08-22T07:25:52.483Z,6.10
2022-08-22T07:28:51.252Z,6.80
2022-08-22T07:31:58.795Z,5.60
2022-08-22T07:34:59.401Z,5.80
2022-08-22T07:37:52.097Z,5.90
2022-08-22T07:40:53.858Z,5.90
2022-08-22T07:43:35.401Z,6.10
2022-08-22T07:46:19.412Z,6.10
2022-08-22T07:49:08.727Z,5.70
2022-08-22T07:51:52.125Z,6.70
2022-08-22T07:54:32.503Z,6.30
2022-08-22T07:57:07.906Z,6.40
2022-08-22T07:59:39.236Z,6.00
2022-08-22T08:02:13.031Z,5.80
2022-08-22T08:04:41.846Z,5.90
2022-08-22T08:07:13.876Z,5.00
2022-08-22T08:09:46.380Z,5.10
2022-08-22T08:12:16.095Z,5.50
2022-08-22T08:14:51.745Z,5.50
2022-08-22T08:17:31.518Z,5.30
2022-08-22T08:20:06.085Z,5.40
2022-08-22T08:22:34.230Z,5.20
2022-08-22T08:25:02.622Z,5.20
2022-08-22T08:27:53.510Z,5.60
2022-08-22T08:30:45.147Z,5.50
2022-08-22T08:33:26.094Z,5.70
2022-08-22T08:36:11.713Z,5.90
2022-08-22T08:38:53.401Z,5.40
2022-08-22T08:42:17.096Z,6.20
2022-08-22T08:45:11.187Z,6.00
2022-08-22T08:48:00.752Z,6.30
2022-08-22T08:51:24.878Z,5.90
2022-08-22T08:54:39.970Z,5.60
2022-08-22T08:57:26.321Z,6.10
2022-08-22T09:00:12.223Z,5.70
2022-08-22T09:03:08.434Z,5.90
2022-08-22T09:06:07.222Z,6.00
2022-08-22T09:08:53.861Z,6.00
2022-08-22T09:12:05.569Z,5.60
2022-08-22T09:15:05.372Z,5.70
2022-08-22T09:18:29.722Z,6.50
2022-08-22T09:21:36.583Z,6.40
2022-08-22T09:24:25.446Z,6.30
2022-08-22T09:26:57.984Z,6.10
2022-08-22T09:29:54.851Z,5.60
2022-08-22T09:33:02.643Z,6.30
2022-08-22T09:36:05.084Z,5.90
2022-08-22T09:39:05.788Z,6.30
2022-08-22T09:41:51.722Z,5.70
2022-08-22T09:44:59.915Z,6.30
2022-08-22T09:47:41.799Z,6.70
2022-08-22T09:50:45.217Z,6.00
2022-08-22T09:53:34.201Z,5.80
2022-08-22T09:56:55.905Z,6.70
2022-08-22T10:00:15.102Z,6.90
2022-08-22T10:03:15.933Z,6.40
2022-08-22T10:06:11.406Z,5.90
2022-08-22T10:08:58.490Z,6.80
2022-08-22T10:11:32.032Z,6.40
2022-08-22T10:14:08.483Z,6.30
2022-08-22T10:17:21.804Z,6.10
2022-08-22T10:20:02.695Z,6.70
2022-08-22T10:23:01.504Z,6.60
2022-08-22T10:26:29.576Z,6.20
2022-08-22T10:29:34.919Z,7.30
2022-08-22T10:33:00.392Z,6.10
2022-08-22T10:36:13.185Z,6.10
2022-08-22T10:38:50.251Z,6.50
2022-08-22T10:41:38.718Z,6.30
2022-08-22T10:44:22.793Z,6.40
2022-08-22T10:47:08.582Z,6.40
2022-08-22T10:49:47.067Z,6.30
2022-08-22T10:52:32.884Z,6.40
2022-08-22T10:55:17.292Z,6.10
2022-08-22T10:58:08.935Z,6.20
2022-08-22T11:00:54.996Z,6.40
2022-08-22T11:04:02.824Z,6.30
2022-08-22T11:06:57.819Z,6.10
2022-08-22T11:10:02.131Z,6.70
2022-08-22T11:12:41.616Z,6.10
2022-08-22T11:15:49.460Z,6.40
2022-08-22T11:18:58.625Z,6.50
2022-08-22T11:21:46.017Z,6.30
2022-08-22T11:24:34.764Z,6.70
2022-08-22T11:27:34.478Z,6.20
2022-08-22T11:30:36.494Z,6.00
2022-08-22T11:33:47.283Z,6.30
2022-08-22T11:36:39.200Z,5.40
2022-08-22T11:39:25.719Z,6.60
2022-08-22T11:42:01.433Z,6.20
2022-08-22T11:44:50.338Z,6.40
2022-08-22T11:47:26.744Z,6.40
2022-08-22T11:50:34.598Z,6.00
2022-08-22T11:53:24.113Z,5.80
2022-08-22T11:56:10.352Z,6.50
2022-08-22T11:59:26.729Z,6.30
2022-08-22T12:02:11.930Z,7.10
2022-08-22T12:04:50.554Z,6.80
2022-08-22T12:07:31.514Z,6.80
2022-08-22T12:10:27.587Z,7.40
2022-08-22T12:13:05.554Z,6.60
2022-08-22T12:15:53.990Z,7.00
2022-08-22T12:18:45.421Z,6.70
2022-08-22T12:21:36.742Z,7.40
2022-08-22T12:24:46.419Z,7.80
2022-08-22T12:27:40.430Z,7.60
2022-08-22T12:30:48.983Z,7.80
2022-08-22T12:33:31.233Z,6.60
2022-08-22T12:36:49.224Z,7.20
2022-08-22T12:39:52.168Z,6.30
2022-08-22T12:42:37.701Z,7.10
2022-08-22T12:45:46.497Z,6.50
2022-08-22T12:48:47.638Z,6.60
2022-08-22T12:51:29.496Z,6.80
2022-08-22T12:54:23.341Z,6.80
2022-08-22T12:57:25.060Z,6.30
2022-08-22T13:00:11.693Z,5.80
2022-08-22T13:02:39.738Z,6.00
2022-08-22T13:05:19.959Z,5.90
2022-08-22T13:08:01.261Z,6.40
2022-08-22T13:10:42.231Z,6.80
2022-08-22T13:13:31.611Z,7.10
2022-08-22T13:16:12.975Z,6.50
2022-08-22T13:18:55.849Z,6.90
2022-08-22T13:21:39.830Z,6.80
2022-08-22T13:24:22.749Z,7.20
2022-08-22T13:27:16.495Z,7.60
2022-08-22T13:29:58.586Z,6.10
2022-08-22T13:32:37.261Z,6.20
2022-08-22T13:35:09.358Z,7.10
2022-08-22T13:37:44.609Z,7.40
2022-08-22T13:40:33.862Z,6.50
2022-08-22T13:43:07.556Z,7.70
2022-08-22T13:45:38.150Z,6.80
2022-08-22T13:48:14.988Z,6.80
2022-08-22T13:51:16.322Z,6.00
2022-08-22T13:53:58.057Z,5.90
2022-08-22T13:56:47.188Z,6.50
2022-08-22T13:59:52.076Z,6.20
2022-08-22T14:02:55.218Z,5.80
2022-08-22T14:05:33.246Z,6.00
2022-08-22T14:08:18.465Z,6.20
2022-08-22T14:11:10.135Z,6.40
2022-08-22T14:13:56.414Z,6.10
2022-08-22T14:16:37.158Z,6.70
2022-08-22T14:19:28.034Z,6.10
2022-08-22T14:22:31.784Z,6.70
2022-08-22T14:25:18.163Z,6.40
2022-08-22T14:27:52.513Z,6.60
2022-08-22T14:30:28.184Z,6.80
2022-08-22T14:33:22.183Z,6.70
2022-08-22T14:36:03.801Z,6.50
2022-08-22T14:38:40.533Z,6.20
2022-08-22T14:41:55.740Z,6.90
2022-08-22T14:45:01.944Z,6.50
2022-08-22T14:47:55.676Z,5.80
2022-08-22T14:50:45.782Z,6.80
2022-08-22T14:53:19.942Z,6.30
2022-08-22T14:56:19.227Z,5.80
2022-08-22T14:58:53.384Z,6.60
2022-08-22T15:01:26.438Z,6.40
2022-08-22T15:04:07.857Z,6.70
2022-08-22T15:06:55.370Z,5.80
2022-08-22T15:09:37.744Z,6.30
2022-08-22T15:12:25.978Z,6.60
2022-08-22T15:15:00.407Z,6.80
2022-08-22T15:17:46.472Z,5.90
2022-08-22T15:20:49.105Z,6.30
2022-08-22T15:23:23.551Z,6.10
2022-08-22T15:26:02.354Z,6.50
2022-08-22T15:28:39.856Z,6.40
2022-08-22T15:31:20.672Z,6.10
2022-08-22T15:33:49.527Z,6.40
2022-08-22T15:36:26.739Z,6.50
2022-08-22T15:39:16.513Z,5.90
2022-08-22T15:41:48.338Z,5.90
2022-08-22T15:44:30.715Z,6.00
2022-08-22T15:47:24.162Z,6.10
2022-08-22T15:50:05.426Z,6.70
2022-08-22T15:53:08.576Z,6.70
2022-08-22T15:55:36.969Z,6.20
2022-08-22T15:58:24.639Z,6.20
2022-08-22T16:01:25.720Z,6.10
2022-08-22T16:04:03.880Z,6.00
2022-08-22T16:06:58.048Z,6.40
2022-08-22T16:09:44.574Z,6.00
2022-08-22T16:12:34.402Z,5.60
2022-08-22T16:15:07.601Z,6.00
2022-08-22T16:17:45.975Z,6.20
2022-08-22T16:20:20.373Z,6.30
2022-08-22T16:23:07.579Z,5.60
2022-08-22T16:25:46.782Z,6.00
2022-08-22T16:28:56.386Z,5.80
2022-08-22T16:31:29.290Z,5.80
2022-08-22T16:34:16.222Z,5.30
2022-08-22T16:36:48.582Z,5.70
2022-08-22T16:39:21.235Z,6.20
2022-08-22T16:41:56.506Z,5.90
2022-08-22T16:44:28.717Z,6.10
2022-08-22T16:47:22.585Z,5.80
2022-08-22T16:49:49.050Z,5.40
2022-08-22T16:52:22.218Z,5.60
2022-08-22T16:55:01.417Z,6.00
2022-08-22T16:57:54.434Z,5.60
2022-08-22T17:00:51.427Z,6.00
2022-08-22T17:03:39.063Z,5.40
2022-08-22T17:06:52.043Z,6.10
2022-08-22T17:09:40.511Z,5.40
2022-08-22T17:12:46.467Z,5.70
2022-08-22T17:15:40.362Z,6.10
2022-08-22T17:18:46.159Z,5.50
2022-08-22T17:21:27.916Z,6.20
2022-08-22T17:24:11.682Z,6.30
2022-08-22T17:27:18.666Z,6.30
2022-08-22T17:30:11.835Z,7.30
2022-08-22T17:33:27.954Z,6.30
2022-08-22T17:36:35.498Z,5.80
2022-08-22T17:39:20.432Z,5.60
2022-08-22T17:41:58.793Z,6.00
2022-08-22T17:44:52.863Z,5.40
2022-08-22T17:47:33.953Z,5.60
2022-08-22T17:50:13.182Z,5.40
2022-08-22T17:52:58.698Z,6.00
2022-08-22T17:55:32.614Z,5.60
2022-08-22T17:58:35.707Z,5.80
2022-08-22T18:01:14.921Z,5.20
2022-08-22T18:03:53.420Z,5.50
2022-08-22T18:06:29.975Z,5.20
2022-08-22T18:09:18.308Z,5.60
2022-08-22T18:12:00.899Z,5.30
2022-08-22T18:14:45.519Z,5.70
2022-08-22T18:17:29.971Z,5.20
2022-08-22T18:20:25.082Z,5.80
2022-08-22T18:23:21.851Z,5.20
2022-08-22T18:26:24.037Z,5.40
2022-08-22T18:29:03.163Z,5.70
2022-08-22T18:32:05.914Z,5.20
2022-08-22T18:34:47.083Z,5.20
2022-08-22T18:37:37.287Z,5.20
2022-08-22T18:40:22.633Z,5.70
2022-08-22T18:42:58.629Z,5.10
2022-08-22T18:45:44.736Z,5.10
2022-08-22T18:48:59.464Z,5.70
2022-08-22T18:51:38.310Z,5.50
2022-08-22T18:54:05.220Z,5.60
2022-08-22T18:56:33.081Z,5.30
2022-08-22T18:59:25.078Z,5.70
2022-08-22T19:02:15.528Z,5.20
2022-08-22T19:05:13.123Z,5.60
2022-08-22T19:08:08.381Z,6.00
2022-08-22T19:10:49.423Z,5.70
2022-08-22T19:13:25.288Z,6.20
2022-08-22T19:16:15.237Z,5.90
2022-08-22T19:18:53.027Z,6.00
2022-08-22T19:21:52.224Z,5.80
2022-08-22T19:24:27.537Z,6.30
2022-08-22T19:27:19.006Z,6.20
2022-08-22T19:29:45.860Z,6.10
2022-08-22T19:32:46.140Z,6.10
2022-08-22T19:35:34.791Z,6.40
2022-08-22T19:38:06.265Z,6.70
2022-08-22T19:40:44.980Z,6.60
2022-08-22T19:43:31.906Z,6.40
2022-08-22T19:46:04.281Z,6.00
2022-08-22T19:48:45.484Z,6.40
2022-08-22T19:51:28.743Z,6.50
2022-08-22T19:54:05.760Z,5.90
2022-08-22T19:56:49.640Z,6.40
2022-08-22T19:59:40.027Z,6.40
2022-08-22T20:02:35.140Z,6.50
2022-08-22T20:05:23.166Z,6.40
2022-08-22T20:08:34.730Z,6.90
2022-08-22T20:11:19.305Z,6.30
2022-08-22T20:13:46.174Z,6.80
2022-08-22T20:16:21.868Z,6.40
2022-08-22T20:19:08.928Z,6.10
2022-08-22T20:21:42.330Z,6.00
2022-08-22T20:24:52.622Z,6.10
2022-08-22T20:27:28.170Z,6.00
2022-08-22T20:30:02.579Z,6.70
2022-08-22T20:32:32.465Z,6.20
2022-08-22T20:35:04.675Z,6.30
2022-08-22T20:38:05.293Z,6.10
2022-08-22T20:40:59.469Z,6.60
2022-08-22T20:43:38.962Z,7.00
2022-08-22T20:46:25.294Z,7.10
2022-08-22T20:48:56.736Z,7.20
2022-08-22T20:51:29.831Z,6.90
2022-08-22T20:54:24.022Z,7.10
2022-08-22T20:57:00.193Z,6.80
2022-08-22T20:59:29.835Z,6.60
2022-08-22T21:02:13.460Z,7.30
2022-08-22T21:04:49.518Z,6.90
2022-08-22T21:07:28.899Z,6.80
2022-08-22T21:10:23.048Z,7.00
2022-08-22T21:13:17.384Z,6.70
2022-08-22T21:15:55.015Z,6.70
2022-08-22T21:18:33.190Z,7.00
2022-08-22T21:21:19.187Z,6.60
2022-08-22T21:23:57.420Z,6.70
2022-08-22T21:26:46.223Z,7.20
2022-08-22T21:29:12.731Z,7.10
2022-08-22T21:32:04.570Z,7.30
2022-08-22T21:34:45.998Z,7.80
2022-08-22T21:37:18.049Z,7.20
2022-08-22T21:39:50.233Z,7.20
2022-08-22T21:42:31.995Z,7.20
2022-08-22T21:45:04.174Z,7.00
2022-08-22T21:47:36.157Z,7.20
2022-08-22T21:50:27.211Z,7.80
2022-08-22T21:52:53.676Z,6.90
2022-08-22T21:55:47.116Z,7.30
2022-08-22T21:58:34.985Z,6.70
2022-08-22T22:01:31.788Z,7.40
2022-08-22T22:03:59.941Z,7.70
2022-08-22T22:06:27.004Z,6.70
2022-08-22T22:08:53.693Z,6.90
2022-08-22T22:11:20.568Z,6.70
2022-08-22T22:13:47.459Z,6.90
2022-08-22T22:16:24.460Z,6.90
2022-08-22T22:18:51.068Z,7.60
2022-08-22T22:21:17.650Z,7.30
2022-08-22T22:23:44.478Z,6.90
2022-08-22T22:26:11.705Z,6.70
2022-08-22T22:28:42.792Z,7.30
2022-08-22T22:31:10.041Z,7.00
2022-08-22T22:33:40.692Z,7.10
2022-08-22T22:36:14.756Z,6.50
2022-08-22T22:38:41.877Z,7.60
2022-08-22T22:41:08.605Z,7.40
2022-08-22T22:43:36.366Z,7.00
2022-08-22T22:46:03.235Z,6.60
2022-08-22T22:48:29.802Z,7.00
2022-08-22T22:50:56.504Z,7.00
2022-08-22T22:53:38.423Z,6.50
2022-08-22T22:56:11.629Z,7.10
2022-08-22T22:58:41.223Z,7.30
2022-08-22T23:01:20.231Z,6.90
2022-08-22T23:03:53.494Z,6.20
2022-08-22T23:06:23.418Z,6.30
2022-08-22T23:08:50.788Z,6.30
2022-08-22T23:11:28.015Z,6.70
2022-08-22T23:13:55.318Z,6.20
2022-08-22T23:16:28.418Z,6.40
2022-08-22T23:18:56.313Z,6.30
2022-08-22T23:21:30.042Z,6.40
2022-08-22T23:24:00.072Z,6.40
2022-08-22T23:26:28.261Z,6.10
2022-08-22T23:28:55.151Z,5.80
2022-08-22T23:31:32.605Z,6.20
2022-08-22T23:34:10.298Z,6.40
2022-08-22T23:36:38.535Z,6.20
2022-08-22T23:39:08.181Z,5.80
2022-08-22T23:41:36.678Z,6.60
2022-08-22T23:44:07.196Z,6.10
2022-08-22T23:46:36.623Z,6.10
2022-08-22T23:49:05.552Z,6.20
2022-08-22T23:51:32.712Z,6.00
2022-08-22T23:54:00.552Z,6.10
2022-08-22T23:56:35.427Z,6.00
2022-08-22T23:59:07.916Z,6.00
